SEKGS ESGG-ZZZZ
Flight info
| Callsign | SEKGS |
|---|---|
| Flight time | N/A |
| Altitude | |
| Route | |
| Aircraft | B47T |
Departure
| Time | 2026-04-30 21:42 |
|---|---|
| Airport | Göteborg Landvetter Airport (ESGG) |
Arrival
| Time | N/A |
|---|---|
| Airport | ZZZZ |
| Time | Latitude | Longitude | Altitude | Speed | Heading |
|---|---|---|---|---|---|
| 2026-04-30 21:34 | 57.67107 | 12.29376 | 511 ft | 0 kts | 250° |
| 2026-04-30 21:37 | 57.67100 | 12.29381 | 512 ft | 0 kts | 82° |
| 2026-04-30 21:37 | 57.67101 | 12.29384 | 518 ft | 1 kts | 81° |
| 2026-04-30 21:37 | 57.67108 | 12.29425 | 531 ft | 7 kts | 82° |
| 2026-04-30 21:37 | 57.67140 | 12.29507 | 530 ft | 12 kts | 21° |
| 2026-04-30 21:38 | 57.67187 | 12.29521 | 535 ft | 8 kts | 351° |
| 2026-04-30 21:38 | 57.67259 | 12.29448 | 551 ft | 20 kts | 334° |
| 2026-04-30 21:38 | 57.67406 | 12.29449 | 541 ft | 9 kts | 340° |
| 2026-04-30 21:38 | 57.67411 | 12.29443 | 514 ft | 0 kts | 341° |
| 2026-04-30 21:39 | 57.67411 | 12.29445 | 515 ft | 1 kts | 341° |
| 2026-04-30 21:39 | 57.67421 | 12.29426 | 518 ft | 4 kts | 338° |
| 2026-04-30 21:39 | 57.67443 | 12.29370 | 521 ft | 6 kts | 316° |
| 2026-04-30 21:39 | 57.67449 | 12.29352 | 511 ft | 0 kts | 324° |
| 2026-04-30 21:40 | 57.67451 | 12.29351 | 512 ft | 3 kts | 328° |
| 2026-04-30 21:40 | 57.67468 | 12.29270 | 543 ft | 20 kts | 278° |
| 2026-04-30 21:41 | 57.67349 | 12.28976 | 561 ft | 43 kts | 223° |
| 2026-04-30 21:41 | 57.67041 | 12.28667 | 624 ft | 62 kts | 228° |
| 2026-04-30 21:41 | 57.66569 | 12.28232 | 616 ft | 83 kts | 204° |
| 2026-04-30 21:41 | 57.66050 | 12.27744 | 662 ft | 86 kts | 201° |
| 2026-04-30 21:42 | 57.65566 | 12.27202 | 745 ft | 75 kts | 224° |
| 2026-04-30 21:42 | 57.65566 | 12.26255 | 845 ft | 85 kts | 289° |
| 2026-04-30 21:42 | 57.65972 | 12.25316 | 972 ft | 99 kts | 321° |
| 2026-04-30 21:42 | 57.66563 | 12.24696 | 1218 ft | 75 kts | 320° |
| 2026-04-30 21:43 | 57.66998 | 12.24319 | 1165 ft | 67 kts | 319° |
| 2026-04-30 21:43 | 57.67391 | 12.23923 | 1135 ft | 64 kts | 317° |
| 2026-04-30 21:43 | 57.67775 | 12.23475 | 979 ft | 74 kts | 315° |
| 2026-04-30 21:43 | 57.68187 | 12.22833 | 881 ft | 78 kts | 297° |
| 2026-04-30 21:44 | 57.68436 | 12.22037 | 976 ft | 54 kts | 292° |
| 2026-04-30 21:44 | 57.68631 | 12.21334 | 935 ft | 65 kts | 291° |
| 2026-04-30 21:44 | 57.68770 | 12.20865 | 1260 ft | 5 kts | 332° |
| 2026-04-30 21:44 | 57.68797 | 12.20851 | 1005 ft | 0 kts | 334° |
| 2026-04-30 21:45 | 57.68802 | 12.20866 | 694 ft | 6 kts | 337° |
| 2026-04-30 21:45 | 57.68899 | 12.20975 | 795 ft | 30 kts | 355° |
| 2026-04-30 21:45 | 57.69260 | 12.21454 | 672 ft | 96 kts | 43° |
| 2026-04-30 21:45 | 57.69591 | 12.22508 | 658 ft | 94 kts | 59° |
| 2026-04-30 21:46 | 57.69680 | 12.23743 | 680 ft | 91 kts | 81° |
| 2026-04-30 21:46 | 57.69583 | 12.24875 | 639 ft | 97 kts | 93° |
| 2026-04-30 21:46 | 57.69510 | 12.26234 | 488 ft | 111 kts | 94° |
| 2026-04-30 21:46 | 57.69242 | 12.27538 | 463 ft | 109 kts | 130° |
| 2026-04-30 21:47 | 57.68591 | 12.27534 | 577 ft | 77 kts | 213° |
| 2026-04-30 21:47 | 57.68235 | 12.27157 | 697 ft | 52 kts | 228° |
| 2026-04-30 21:47 | 57.67851 | 12.27239 | 624 ft | 51 kts | 213° |
| 2026-04-30 21:47 | 57.67559 | 12.27463 | 642 ft | 45 kts | 212° |
| 2026-04-30 21:48 | 57.67316 | 12.27886 | 627 ft | 48 kts | 214° |
| 2026-04-30 21:48 | 57.67079 | 12.28299 | 611 ft | 45 kts | 213° |
| 2026-04-30 21:48 | 57.66742 | 12.28298 | 539 ft | 48 kts | 221° |
| 2026-04-30 21:48 | 57.66407 | 12.28040 | 521 ft | 59 kts | 224° |
| 2026-04-30 21:49 | 57.66012 | 12.27688 | 521 ft | 69 kts | 221° |
| 2026-04-30 21:49 | 57.65565 | 12.27298 | 547 ft | 75 kts | 197° |
| 2026-04-30 21:49 | 57.65084 | 12.26916 | 539 ft | 70 kts | 200° |
| 2026-04-30 21:49 | 57.64686 | 12.26545 | 598 ft | 21 kts | 98° |
| 2026-04-30 21:50 | 57.64766 | 12.26679 | 516 ft | 29 kts | 43° |
| 2026-04-30 21:50 | 57.64992 | 12.26856 | 535 ft | 5 kts | 216° |
| 2026-04-30 21:50 | 57.64984 | 12.26842 | 480 ft | 0 kts | 208° |